Terminal Aerodrome Forecast
Issued by NWS

Home | Current Version | Previous Version | Text Only | Print | Product List | Glossary On
Versions: 1 2 3 4 5 6 7 8 9 10 11 12 13 14 15
000
FTUS43 KILX 231100 RRA
TAFDEC
TAF
KDEC 231153Z 2312/2412 35008KT 4SM BR SCT045
     FM231500 02012KT P6SM SCT060
     FM240200 03007KT P6SM SKC=

USA.gov is the U.S. government's official web portal to all federal, state and local government web resources and services.